sensor_id;sensor_type;location;lat;lon;timestamp;pressure;altitude;pressure_sealevel;temperature;humidity
66398;BME280;54877;51.504;3.894;2023-12-04T00:02:08;101150.00;;;5.59;61.95
66398;BME280;54877;51.504;3.894;2023-12-04T00:04:33;101143.94;;;5.55;61.52
66398;BME280;54877;51.504;3.894;2023-12-04T00:06:58;101150.78;;;5.62;61.59
66398;BME280;54877;51.504;3.894;2023-12-04T00:09:23;101134.03;;;5.66;61.68
66398;BME280;54877;51.504;3.894;2023-12-04T00:11:49;101128.78;;;5.66;60.83
66398;BME280;54877;51.504;3.894;2023-12-04T00:14:15;101133.97;;;5.69;61.08
66398;BME280;54877;51.504;3.894;2023-12-04T00:16:40;101121.56;;;5.74;61.44
66398;BME280;54877;51.504;3.894;2023-12-04T00:19:05;101118.91;;;5.76;61.28
66398;BME280;54877;51.504;3.894;2023-12-04T00:21:31;101121.53;;;5.76;61.12
66398;BME280;54877;51.504;3.894;2023-12-04T00:23:57;101124.19;;;5.76;60.64
66398;BME280;54877;51.504;3.894;2023-12-04T00:26:22;101119.75;;;5.78;60.37
66398;BME280;54877;51.504;3.894;2023-12-04T00:28:47;101113.50;;;5.82;60.67
66398;BME280;54877;51.504;3.894;2023-12-04T00:31:13;101113.47;;;5.85;60.52
66398;BME280;54877;51.504;3.894;2023-12-04T00:33:38;101109.13;;;5.82;60.18
66398;BME280;54877;51.504;3.894;2023-12-04T00:36:03;101102.13;;;5.81;59.83
66398;BME280;54877;51.504;3.894;2023-12-04T00:38:29;101096.88;;;5.81;60.05
66398;BME280;54877;51.504;3.894;2023-12-04T00:40:54;101090.69;;;5.84;59.93
66398;BME280;54877;51.504;3.894;2023-12-04T00:43:19;101087.19;;;5.85;59.70
66398;BME280;54877;51.504;3.894;2023-12-04T00:45:44;101088.94;;;5.84;59.27
66398;BME280;54877;51.504;3.894;2023-12-04T00:48:10;101082.84;;;5.82;59.20
66398;BME280;54877;51.504;3.894;2023-12-04T00:50:35;101086.25;;;5.87;59.51
66398;BME280;54877;51.504;3.894;2023-12-04T00:53:00;101079.25;;;5.86;59.44
66398;BME280;54877;51.504;3.894;2023-12-04T00:55:26;101073.94;;;5.89;59.41
66398;BME280;54877;51.504;3.894;2023-12-04T00:57:51;101078.25;;;5.92;59.23
66398;BME280;54877;51.504;3.894;2023-12-04T01:00:16;101080.84;;;5.94;59.21
66398;BME280;54877;51.504;3.894;2023-12-04T01:02:42;101073.78;;;5.94;59.13
66398;BME280;54877;51.504;3.894;2023-12-04T01:05:07;101070.22;;;5.97;59.08
66398;BME280;54877;51.504;3.894;2023-12-04T01:07:33;101066.69;;;5.98;59.07
66398;BME280;54877;51.504;3.894;2023-12-04T01:09:58;101057.06;;;5.97;58.74
66398;BME280;54877;51.504;3.894;2023-12-04T01:12:23;101054.44;;;5.97;59.11
66398;BME280;54877;51.504;3.894;2023-12-04T01:14:48;101048.31;;;5.98;59.04
66398;BME280;54877;51.504;3.894;2023-12-04T01:17:14;101046.63;;;5.95;58.65
66398;BME280;54877;51.504;3.894;2023-12-04T01:19:39;101037.88;;;5.95;59.13
66398;BME280;54877;51.504;3.894;2023-12-04T01:22:05;101037.94;;;5.93;58.27
66398;BME280;54877;51.504;3.894;2023-12-04T01:24:30;101030.94;;;5.92;58.91
66398;BME280;54877;51.504;3.894;2023-12-04T01:26:55;101026.63;;;5.89;58.74
66398;BME280;54877;51.504;3.894;2023-12-04T01:29:20;101020.50;;;5.89;59.07
66398;BME280;54877;51.504;3.894;2023-12-04T01:31:46;101016.19;;;5.86;58.88
66398;BME280;54877;51.504;3.894;2023-12-04T01:34:11;101018.84;;;5.86;58.76
66398;BME280;54877;51.504;3.894;2023-12-04T01:36:39;101010.00;;;5.89;58.80
66398;BME280;54877;51.504;3.894;2023-12-04T01:39:05;101010.91;;;5.88;58.86
66398;BME280;54877;51.504;3.894;2023-12-04T01:41:30;101012.63;;;5.89;58.54
66398;BME280;54877;51.504;3.894;2023-12-04T01:43:55;101012.59;;;5.90;58.42
66398;BME280;54877;51.504;3.894;2023-12-04T01:46:20;101006.59;;;5.85;58.09
66398;BME280;54877;51.504;3.894;2023-12-04T01:48:46;101000.50;;;5.83;58.37
66398;BME280;54877;51.504;3.894;2023-12-04T01:51:14;101008.38;;;5.85;58.69
66398;BME280;54877;51.504;3.894;2023-12-04T01:53:40;101002.19;;;5.86;58.26
66398;BME280;54877;51.504;3.894;2023-12-04T01:56:06;100997.78;;;5.88;58.71
66398;BME280;54877;51.504;3.894;2023-12-04T01:58:32;101001.25;;;5.88;58.46
66398;BME280;54877;51.504;3.894;2023-12-04T02:00:58;100998.63;;;5.88;58.32
66398;BME280;54877;51.504;3.894;2023-12-04T02:03:23;100988.19;;;5.85;58.29
66398;BME280;54877;51.504;3.894;2023-12-04T02:05:48;100994.38;;;5.83;58.27
66398;BME280;54877;51.504;3.894;2023-12-04T02:08:15;100989.09;;;5.84;58.33
66398;BME280;54877;51.504;3.894;2023-12-04T02:10:40;100978.56;;;5.86;58.23
66398;BME280;54877;51.504;3.894;2023-12-04T02:13:06;100978.56;;;5.86;58.13
66398;BME280;54877;51.504;3.894;2023-12-04T02:15:31;100972.41;;;5.87;57.93
66398;BME280;54877;51.504;3.894;2023-12-04T02:17:57;100966.34;;;5.85;57.83
66398;BME280;54877;51.504;3.894;2023-12-04T02:20:30;100975.09;;;5.84;57.57
66398;BME280;54877;51.504;3.894;2023-12-04T02:22:55;100963.66;;;5.86;57.68
66398;BME280;54877;51.504;3.894;2023-12-04T02:25:21;100968.91;;;5.86;57.54
66398;BME280;54877;51.504;3.894;2023-12-04T02:27:50;100962.84;;;5.83;56.91
66398;BME280;54877;51.504;3.894;2023-12-04T02:30:17;100962.84;;;5.83;57.37
66398;BME280;54877;51.504;3.894;2023-12-04T02:32:44;100959.31;;;5.84;57.34
66398;BME280;54877;51.504;3.894;2023-12-04T02:35:10;100952.31;;;5.84;57.38
66398;BME280;54877;51.504;3.894;2023-12-04T02:37:36;100947.13;;;5.81;57.11
66398;BME280;54877;51.504;3.894;2023-12-04T02:40:02;100946.25;;;5.82;57.29
66398;BME280;54877;51.504;3.894;2023-12-04T02:42:27;100946.16;;;5.85;57.05
66398;BME280;54877;51.504;3.894;2023-12-04T02:44:52;100938.09;;;5.91;57.20
66398;BME280;54877;51.504;3.894;2023-12-04T02:47:18;100937.28;;;5.89;57.45
66398;BME280;54877;51.504;3.894;2023-12-04T02:49:43;100924.09;;;5.91;56.90
66398;BME280;54877;51.504;3.894;2023-12-04T02:52:08;100920.06;;;5.79;56.32
66398;BME280;54877;51.504;3.894;2023-12-04T02:54:34;100919.88;;;5.85;56.82
66398;BME280;54877;51.504;3.894;2023-12-04T02:56:59;100909.38;;;5.85;56.54
66398;BME280;54877;51.504;3.894;2023-12-04T02:59:24;100907.63;;;5.86;56.85
66398;BME280;54877;51.504;3.894;2023-12-04T03:01:49;100902.34;;;5.87;56.33
66398;BME280;54877;51.504;3.894;2023-12-04T03:04:15;100892.78;;;5.85;56.53
66398;BME280;54877;51.504;3.894;2023-12-04T03:06:40;100895.41;;;5.83;56.44
66398;BME280;54877;51.504;3.894;2023-12-04T03:09:05;100888.34;;;5.85;56.66
66398;BME280;54877;51.504;3.894;2023-12-04T03:11:30;100885.81;;;5.82;56.23
66398;BME280;54877;51.504;3.894;2023-12-04T03:13:56;100886.72;;;5.81;56.76
66398;BME280;54877;51.504;3.894;2023-12-04T03:16:21;100884.97;;;5.80;56.56
66398;BME280;54877;51.504;3.894;2023-12-04T03:18:46;100876.19;;;5.81;56.68
66398;BME280;54877;51.504;3.894;2023-12-04T03:21:12;100873.50;;;5.84;56.82
66398;BME280;54877;51.504;3.894;2023-12-04T03:23:37;100868.22;;;5.84;56.63
66398;BME280;54877;51.504;3.894;2023-12-04T03:26:03;100863.81;;;5.86;56.70
66398;BME280;54877;51.504;3.894;2023-12-04T03:28:28;100862.91;;;5.87;57.11
66398;BME280;54877;51.504;3.894;2023-12-04T03:30:53;100855.84;;;5.89;56.77
66398;BME280;54877;51.504;3.894;2023-12-04T03:33:19;100851.41;;;5.91;56.97
66398;BME280;54877;51.504;3.894;2023-12-04T03:35:44;100840.88;;;5.91;56.64
66398;BME280;54877;51.504;3.894;2023-12-04T03:38:09;100837.41;;;5.91;56.79
66398;BME280;54877;51.504;3.894;2023-12-04T03:40:34;100846.22;;;5.88;56.91
66398;BME280;54877;51.504;3.894;2023-12-04T03:43:00;100834.81;;;5.89;56.63
66398;BME280;54877;51.504;3.894;2023-12-04T03:45:25;100835.72;;;5.88;56.75
66398;BME280;54877;51.504;3.894;2023-12-04T03:47:50;100833.94;;;5.90;56.68
66398;BME280;54877;51.504;3.894;2023-12-04T03:50:15;100826.84;;;5.93;56.78
66398;BME280;54877;51.504;3.894;2023-12-04T03:52:41;100832.19;;;5.89;56.70
66398;BME280;54877;51.504;3.894;2023-12-04T03:55:07;100821.78;;;5.86;56.31
66398;BME280;54877;51.504;3.894;2023-12-04T03:57:32;100825.28;;;5.87;56.38
66398;BME280;54877;51.504;3.894;2023-12-04T03:59:57;100822.59;;;5.88;56.46
66398;BME280;54877;51.504;3.894;2023-12-04T04:02:22;100821.78;;;5.86;56.39
66398;BME280;54877;51.504;3.894;2023-12-04T04:04:48;100812.94;;;5.89;56.43
66398;BME280;54877;51.504;3.894;2023-12-04T04:07:15;100810.31;;;5.89;56.26
66398;BME280;54877;51.504;3.894;2023-12-04T04:09:40;100810.41;;;5.86;56.38
66398;BME280;54877;51.504;3.894;2023-12-04T04:12:06;100804.09;;;5.91;56.56
66398;BME280;54877;51.504;3.894;2023-12-04T04:14:31;100808.50;;;5.91;56.80
66398;BME280;54877;51.504;3.894;2023-12-04T04:16:56;100805.88;;;5.91;56.52
66398;BME280;54877;51.504;3.894;2023-12-04T04:19:22;100795.41;;;5.89;56.73
66398;BME280;54877;51.504;3.894;2023-12-04T04:21:48;100795.41;;;5.89;56.54
66398;BME280;54877;51.504;3.894;2023-12-04T04:24:13;100786.63;;;5.90;56.60
66398;BME280;54877;51.504;3.894;2023-12-04T04:26:38;100780.44;;;5.91;56.63
66398;BME280;54877;51.504;3.894;2023-12-04T04:29:03;100765.56;;;5.92;56.87
66398;BME280;54877;51.504;3.894;2023-12-04T04:31:29;100762.66;;;5.72;56.51
66398;BME280;54877;51.504;3.894;2023-12-04T04:33:54;100759.66;;;5.84;56.56
66398;BME280;54877;51.504;3.894;2023-12-04T04:36:19;100756.91;;;5.88;56.03
66398;BME280;54877;51.504;3.894;2023-12-04T04:38:44;100749.00;;;5.90;56.13
66398;BME280;54877;51.504;3.894;2023-12-04T04:41:13;100744.50;;;5.94;56.13
66398;BME280;54877;51.504;3.894;2023-12-04T04:43:39;100735.78;;;5.91;55.60
66398;BME280;54877;51.504;3.894;2023-12-04T04:46:04;100739.25;;;5.94;55.43
66398;BME280;54877;51.504;3.894;2023-12-04T04:48:29;100740.94;;;5.95;55.31
66398;BME280;54877;51.504;3.894;2023-12-04T04:50:54;100743.66;;;5.91;55.45
66398;BME280;54877;51.504;3.894;2023-12-04T04:53:20;100753.19;;;5.96;55.06
66398;BME280;54877;51.504;3.894;2023-12-04T04:55:45;100749.53;;;6.00;55.36
66398;BME280;54877;51.504;3.894;2023-12-04T04:58:11;100745.13;;;6.02;55.16
66398;BME280;54877;51.504;3.894;2023-12-04T05:00:36;100741.63;;;6.01;55.16
66398;BME280;54877;51.504;3.894;2023-12-04T05:03:01;100738.03;;;6.04;54.74
66398;BME280;54877;51.504;3.894;2023-12-04T05:05:26;100745.00;;;6.05;54.87
66398;BME280;54877;51.504;3.894;2023-12-04T05:07:52;100742.38;;;6.05;55.00
66398;BME280;54877;51.504;3.894;2023-12-04T05:10:17;100745.81;;;6.07;55.03
66398;BME280;54877;51.504;3.894;2023-12-04T05:12:42;100735.31;;;6.07;55.45
66398;BME280;54877;51.504;3.894;2023-12-04T05:15:07;100739.78;;;6.03;55.17
66398;BME280;54877;51.504;3.894;2023-12-04T05:17:33;100734.69;;;5.99;55.03
66398;BME280;54877;51.504;3.894;2023-12-04T05:19:58;100738.84;;;6.06;55.16
66398;BME280;54877;51.504;3.894;2023-12-04T05:22:23;100735.50;;;6.01;54.28
66398;BME280;54877;51.504;3.894;2023-12-04T05:24:49;100733.66;;;6.03;54.50
66398;BME280;54877;51.504;3.894;2023-12-04T05:27:14;100743.38;;;6.01;54.93
66398;BME280;54877;51.504;3.894;2023-12-04T05:29:39;100735.59;;;5.98;54.71
66398;BME280;54877;51.504;3.894;2023-12-04T05:32:05;100734.53;;;6.03;54.94
66398;BME280;54877;51.504;3.894;2023-12-04T05:34:30;100729.19;;;6.06;55.70
66398;BME280;54877;51.504;3.894;2023-12-04T05:36:55;100719.63;;;6.04;55.20
66398;BME280;54877;51.504;3.894;2023-12-04T05:39:20;100716.84;;;6.08;55.00
66398;BME280;54877;51.504;3.894;2023-12-04T05:41:45;100707.09;;;6.12;55.04
66398;BME280;54877;51.504;3.894;2023-12-04T05:44:11;100706.19;;;6.13;54.89
66398;BME280;54877;51.504;3.894;2023-12-04T05:46:36;100690.34;;;6.14;55.21
66398;BME280;54877;51.504;3.894;2023-12-04T05:49:01;100693.75;;;6.18;55.32
66398;BME280;54877;51.504;3.894;2023-12-04T05:51:26;100687.63;;;6.17;55.05
66398;BME280;54877;51.504;3.894;2023-12-04T05:53:52;100684.94;;;6.19;55.00
66398;BME280;54877;51.504;3.894;2023-12-04T05:56:17;100682.31;;;6.19;55.02
66398;BME280;54877;51.504;3.894;2023-12-04T05:58:42;100677.13;;;6.17;55.01
66398;BME280;54877;51.504;3.894;2023-12-04T06:01:07;100676.16;;;6.20;54.94
66398;BME280;54877;51.504;3.894;2023-12-04T06:03:33;100685.81;;;6.19;55.21
66398;BME280;54877;51.504;3.894;2023-12-04T06:05:58;100679.56;;;6.22;55.16
66398;BME280;54877;51.504;3.894;2023-12-04T06:08:23;100677.81;;;6.22;55.04
66398;BME280;54877;51.504;3.894;2023-12-04T06:10:49;100675.16;;;6.24;54.92
66398;BME280;54877;51.504;3.894;2023-12-04T06:13:14;100672.53;;;6.24;54.83
66398;BME280;54877;51.504;3.894;2023-12-04T06:15:39;100649.94;;;6.18;55.03
66398;BME280;54877;51.504;3.894;2023-12-04T06:18:04;100652.81;;;6.11;54.53
66398;BME280;54877;51.504;3.894;2023-12-04T06:20:30;100661.63;;;6.10;54.93
66398;BME280;54877;51.504;3.894;2023-12-04T06:22:55;100660.56;;;6.15;55.06
66398;BME280;54877;51.504;3.894;2023-12-04T06:25:20;100673.53;;;6.20;54.97
66398;BME280;54877;51.504;3.894;2023-12-04T06:27:46;100680.63;;;6.18;54.54
66398;BME280;54877;51.504;3.894;2023-12-04T06:30:12;100676.94;;;6.22;54.77
66398;BME280;54877;51.504;3.894;2023-12-04T06:32:37;100679.56;;;6.22;54.71
66398;BME280;54877;51.504;3.894;2023-12-04T06:35:02;100672.53;;;6.24;55.05
66398;BME280;54877;51.504;3.894;2023-12-04T06:37:28;100656.75;;;6.24;54.65
66398;BME280;54877;51.504;3.894;2023-12-04T06:39:53;100648.78;;;6.25;54.82
66398;BME280;54877;51.504;3.894;2023-12-04T06:42:19;100647.13;;;6.23;54.48
66398;BME280;54877;51.504;3.894;2023-12-04T06:44:44;100641.88;;;6.23;54.26
66398;BME280;54877;51.504;3.894;2023-12-04T06:47:10;100640.22;;;6.20;54.32
66398;BME280;54877;51.504;3.894;2023-12-04T06:49:36;100649.69;;;6.24;54.45
66398;BME280;54877;51.504;3.894;2023-12-04T06:52:02;100644.34;;;6.27;54.40
66398;BME280;54877;51.504;3.894;2023-12-04T06:54:27;100641.66;;;6.29;54.40
66398;BME280;54877;51.504;3.894;2023-12-04T06:56:53;100643.31;;;6.31;54.92
66398;BME280;54877;51.504;3.894;2023-12-04T06:59:18;100639.72;;;6.34;54.88
66398;BME280;54877;51.504;3.894;2023-12-04T07:01:44;100630.09;;;6.33;54.95
66398;BME280;54877;51.504;3.894;2023-12-04T07:04:09;100634.69;;;6.28;54.43
66398;BME280;54877;51.504;3.894;2023-12-04T07:06:38;100628.81;;;6.21;54.21
66398;BME280;54877;51.504;3.894;2023-12-04T07:09:03;100623.56;;;6.20;54.16
66398;BME280;54877;51.504;3.894;2023-12-04T07:11:28;100618.31;;;6.20;54.73
66398;BME280;54877;51.504;3.894;2023-12-04T07:13:54;100621.06;;;6.17;54.44
66398;BME280;54877;51.504;3.894;2023-12-04T07:16:19;100622.88;;;6.15;53.83
66398;BME280;54877;51.504;3.894;2023-12-04T07:18:44;100621.84;;;6.19;54.45
66398;BME280;54877;51.504;3.894;2023-12-04T07:21:09;100624.47;;;6.19;54.03
66398;BME280;54877;51.504;3.894;2023-12-04T07:23:35;100615.78;;;6.17;53.94
66398;BME280;54877;51.504;3.894;2023-12-04T07:26:00;100622.88;;;6.15;53.36
66398;BME280;54877;51.504;3.894;2023-12-04T07:28:25;100620.38;;;6.12;53.33
66398;BME280;54877;51.504;3.894;2023-12-04T07:30:50;100608.84;;;6.16;53.18
66398;BME280;54877;51.504;3.894;2023-12-04T07:33:16;100617.63;;;6.15;53.18
66398;BME280;54877;51.504;3.894;2023-12-04T07:35:41;100612.38;;;6.15;53.33
66398;BME280;54877;51.504;3.894;2023-12-04T07:38:06;100615.00;;;6.15;53.50
66398;BME280;54877;51.504;3.894;2023-12-04T07:40:31;100605.59;;;6.08;53.22
66398;BME280;54877;51.504;3.894;2023-12-04T07:42:57;100609.75;;;6.15;53.36
66398;BME280;54877;51.504;3.894;2023-12-04T07:45:22;100611.34;;;6.19;53.39
66398;BME280;54877;51.504;3.894;2023-12-04T07:47:49;100601.78;;;6.16;54.06
66398;BME280;54877;51.504;3.894;2023-12-04T07:50:15;100605.28;;;6.17;54.03
66398;BME280;54877;51.504;3.894;2023-12-04T07:52:40;100599.03;;;6.21;54.03
66398;BME280;54877;51.504;3.894;2023-12-04T07:55:06;100602.63;;;6.18;54.00
66398;BME280;54877;51.504;3.894;2023-12-04T07:57:31;100590.28;;;6.20;54.28
66398;BME280;54877;51.504;3.894;2023-12-04T07:59:56;100594.56;;;6.23;54.25
66398;BME280;54877;51.504;3.894;2023-12-04T08:02:22;100587.44;;;6.26;54.06
66398;BME280;54877;51.504;3.894;2023-12-04T08:04:47;100573.53;;;6.23;53.65
66398;BME280;54877;51.504;3.894;2023-12-04T08:07:12;100572.63;;;6.24;53.86
66398;BME280;54877;51.504;3.894;2023-12-04T08:09:37;100576.09;;;6.24;53.60
66398;BME280;54877;51.504;3.894;2023-12-04T08:12:03;100575.16;;;6.27;53.83
66398;BME280;54877;51.504;3.894;2023-12-04T08:14:28;100567.19;;;6.28;53.93
66398;BME280;54877;51.504;3.894;2023-12-04T08:16:53;100552.44;;;6.24;53.27
66398;BME280;54877;51.504;3.894;2023-12-04T08:19:18;100545.50;;;6.22;53.46
66398;BME280;54877;51.504;3.894;2023-12-04T08:21:43;100548.88;;;6.27;53.73
66398;BME280;54877;51.504;3.894;2023-12-04T08:24:09;100549.66;;;6.29;54.04
66398;BME280;54877;51.504;3.894;2023-12-04T08:26:34;100548.88;;;6.27;53.85
66398;BME280;54877;51.504;3.894;2023-12-04T08:28:59;100546.91;;;6.32;53.63
66398;BME280;54877;51.504;3.894;2023-12-04T08:31:24;100537.22;;;6.32;53.77
66398;BME280;54877;51.504;3.894;2023-12-04T08:33:50;100537.13;;;6.35;53.67
66398;BME280;54877;51.504;3.894;2023-12-04T08:36:15;100530.09;;;6.36;53.47
66398;BME280;54877;51.504;3.894;2023-12-04T08:38:40;100527.88;;;6.25;53.39
66398;BME280;54877;51.504;3.894;2023-12-04T08:41:05;100526.84;;;6.29;53.63
66398;BME280;54877;51.504;3.894;2023-12-04T08:43:31;100520.63;;;6.32;53.45
66398;BME280;54877;51.504;3.894;2023-12-04T08:45:56;100522.31;;;6.33;53.64
66398;BME280;54877;51.504;3.894;2023-12-04T08:48:21;100527.34;;;6.39;54.06
66398;BME280;54877;51.504;3.894;2023-12-04T08:50:47;100518.56;;;6.40;53.88
66398;BME280;54877;51.504;3.894;2023-12-04T08:53:12;100524.50;;;6.45;54.14
66398;BME280;54877;51.504;3.894;2023-12-04T08:55:37;100514.09;;;6.42;53.78
66398;BME280;54877;51.504;3.894;2023-12-04T08:58:02;100518.34;;;6.46;53.86
66398;BME280;54877;51.504;3.894;2023-12-04T09:00:28;100519.53;;;6.37;53.71
66398;BME280;54877;51.504;3.894;2023-12-04T09:02:53;100519.25;;;6.45;54.25
66398;BME280;54877;51.504;3.894;2023-12-04T09:05:19;100523.97;;;6.35;54.24
66398;BME280;54877;51.504;3.894;2023-12-04T09:07:44;100506.03;;;6.46;54.46
66398;BME280;54877;51.504;3.894;2023-12-04T09:10:09;100510.38;;;6.47;54.21
66398;BME280;54877;51.504;3.894;2023-12-04T09:12:35;100491.00;;;6.50;54.25
66398;BME280;54877;51.504;3.894;2023-12-04T09:15:02;100507.56;;;6.52;54.18
66398;BME280;54877;51.504;3.894;2023-12-04T09:17:27;100499.56;;;6.55;54.42
66398;BME280;54877;51.504;3.894;2023-12-04T09:19:52;100494.06;;;6.61;54.89
66398;BME280;54877;51.504;3.894;2023-12-04T09:22:18;100502.19;;;6.55;54.79
66398;BME280;54877;51.504;3.894;2023-12-04T09:24:43;100495.94;;;6.58;54.63
66398;BME280;54877;51.504;3.894;2023-12-04T09:27:09;100503.69;;;6.62;54.51
66398;BME280;54877;51.504;3.894;2023-12-04T09:29:34;100494.03;;;6.63;54.49
66398;BME280;54877;51.504;3.894;2023-12-04T09:31:59;100479.81;;;6.67;54.96
66398;BME280;54877;51.504;3.894;2023-12-04T09:34:25;100476.72;;;6.57;54.76
66398;BME280;54877;51.504;3.894;2023-12-04T09:36:50;100468.44;;;6.66;55.37
66398;BME280;54877;51.504;3.894;2023-12-04T09:39:15;100467.00;;;6.58;55.38
66398;BME280;54877;51.504;3.894;2023-12-04T09:41:41;100469.53;;;6.61;55.70
66398;BME280;54877;51.504;3.894;2023-12-04T09:44:07;100483.31;;;6.67;56.16
66398;BME280;54877;51.504;3.894;2023-12-04T09:46:33;100475.22;;;6.72;55.88
66398;BME280;54877;51.504;3.894;2023-12-04T09:48:59;100481.34;;;6.72;56.20
66398;BME280;54877;51.504;3.894;2023-12-04T09:51:24;100475.47;;;6.66;56.31
66398;BME280;54877;51.504;3.894;2023-12-04T09:53:50;100466.63;;;6.68;57.05
66398;BME280;54877;51.504;3.894;2023-12-04T09:56:17;100466.84;;;6.62;57.47
66398;BME280;54877;51.504;3.894;2023-12-04T09:58:43;100478.16;;;6.64;56.89
66398;BME280;54877;51.504;3.894;2023-12-04T10:01:09;100471.88;;;6.68;57.29
66398;BME280;54877;51.504;3.894;2023-12-04T10:03:35;100466.34;;;6.74;57.26
66398;BME280;54877;51.504;3.894;2023-12-04T10:06:01;100463.59;;;6.77;57.45
66398;BME280;54877;51.504;3.894;2023-12-04T10:08:27;100456.38;;;6.82;57.52
66398;BME280;54877;51.504;3.894;2023-12-04T10:10:52;100463.78;;;6.94;57.58
66398;BME280;54877;51.504;3.894;2023-12-04T10:13:17;100455.81;;;6.96;57.00
66398;BME280;54877;51.504;3.894;2023-12-04T10:15:46;100444.16;;;7.01;57.27
66398;BME280;54877;51.504;3.894;2023-12-04T10:18:23;100443.94;;;7.07;57.17
66398;BME280;54877;51.504;3.894;2023-12-04T10:20:52;100427.13;;;7.10;57.60
66398;BME280;54877;51.504;3.894;2023-12-04T10:23:19;100423.41;;;7.16;57.41
66398;BME280;54877;51.504;3.894;2023-12-04T10:25:45;100433.16;;;7.14;57.87
66398;BME280;54877;51.504;3.894;2023-12-04T10:28:11;100429.97;;;7.05;57.74
66398;BME280;54877;51.504;3.894;2023-12-04T10:30:37;100429.59;;;7.15;58.12
66398;BME280;54877;51.504;3.894;2023-12-04T10:33:05;100424.47;;;7.12;58.25
66398;BME280;54877;51.504;3.894;2023-12-04T10:35:35;100420.22;;;7.07;57.87
66398;BME280;54877;51.504;3.894;2023-12-04T10:38:04;100416.53;;;6.91;57.96
66398;BME280;54877;51.504;3.894;2023-12-04T10:40:30;100411.06;;;6.96;58.11
66398;BME280;54877;51.504;3.894;2023-12-04T10:45:40;100405.50;;;7.03;58.50
66398;BME280;54877;51.504;3.894;2023-12-04T10:48:06;100399.03;;;6.90;59.08
66398;BME280;54877;51.504;3.894;2023-12-04T10:50:32;100389.22;;;6.94;59.53
66398;BME280;54877;51.504;3.894;2023-12-04T10:52:58;100384.84;;;6.94;59.54
66398;BME280;54877;51.504;3.894;2023-12-04T10:55:25;100386.59;;;6.74;60.55
66398;BME280;54877;51.504;3.894;2023-12-04T10:57:50;100381.06;;;6.80;61.15
66398;BME280;54877;51.504;3.894;2023-12-04T11:00:17;100377.41;;;6.84;61.14
66398;BME280;54877;51.504;3.894;2023-12-04T11:02:43;100377.28;;;6.87;61.35
66398;BME280;54877;51.504;3.894;2023-12-04T11:05:12;100374.56;;;6.88;62.00
66398;BME280;54877;51.504;3.894;2023-12-04T11:07:40;100376.47;;;6.85;62.41
66398;BME280;54877;51.504;3.894;2023-12-04T11:10:06;100367.25;;;6.75;62.30
66398;BME280;54877;51.504;3.894;2023-12-04T11:12:33;100363.03;;;6.71;62.61
66398;BME280;54877;51.504;3.894;2023-12-04T11:14:59;100365.50;;;6.54;63.48
66398;BME280;54877;51.504;3.894;2023-12-04T11:17:27;100356.63;;;6.56;63.62
66398;BME280;54877;51.504;3.894;2023-12-04T11:19:59;100346.34;;;6.50;64.11
66398;BME280;54877;51.504;3.894;2023-12-04T11:22:28;100335.78;;;6.52;64.49
66398;BME280;54877;51.504;3.894;2023-12-04T11:24:53;100333.22;;;6.50;64.99
66398;BME280;54877;51.504;3.894;2023-12-04T11:27:19;100328.59;;;6.35;64.94
66398;BME280;54877;51.504;3.894;2023-12-04T11:29:45;100318.75;;;6.40;65.25
66398;BME280;54877;51.504;3.894;2023-12-04T11:32:14;100313.47;;;6.40;65.46
66398;BME280;54877;51.504;3.894;2023-12-04T11:34:47;100302.84;;;6.43;65.38
66398;BME280;54877;51.504;3.894;2023-12-04T11:37:12;100296.75;;;6.41;65.86
66398;BME280;54877;51.504;3.894;2023-12-04T11:39:38;100291.25;;;6.27;66.58
66398;BME280;54877;51.504;3.894;2023-12-04T11:42:06;100297.59;;;6.43;66.24
66398;BME280;54877;51.504;3.894;2023-12-04T11:44:32;100283.63;;;6.41;66.35
66398;BME280;54877;51.504;3.894;2023-12-04T11:47:02;100284.44;;;6.43;66.53
66398;BME280;54877;51.504;3.894;2023-12-04T11:49:29;100271.53;;;6.37;66.69
66398;BME280;54877;51.504;3.894;2023-12-04T11:52:03;100278.38;;;6.41;66.81
66398;BME280;54877;51.504;3.894;2023-12-04T11:54:35;100275.94;;;6.36;66.87
66398;BME280;54877;51.504;3.894;2023-12-04T11:59:39;100265.63;;;6.52;66.69
66398;BME280;54877;51.504;3.894;2023-12-04T12:02:08;100269.06;;;6.54;66.36
66398;BME280;54877;51.504;3.894;2023-12-04T12:04:34;100281.53;;;6.49;66.52
66398;BME280;54877;51.504;3.894;2023-12-04T12:07:00;100253.41;;;6.51;66.36
66398;BME280;54877;51.504;3.894;2023-12-04T12:09:28;100265.31;;;6.60;66.29
66398;BME280;54877;51.504;3.894;2023-12-04T12:11:53;100259.97;;;6.61;66.12
66398;BME280;54877;51.504;3.894;2023-12-04T12:14:22;100265.13;;;6.64;66.18
66398;BME280;54877;51.504;3.894;2023-12-04T12:16:48;100250.13;;;6.66;66.37
66398;BME280;54877;51.504;3.894;2023-12-04T12:19:13;100253.94;;;6.59;66.11
66398;BME280;54877;51.504;3.894;2023-12-04T12:21:38;100252.03;;;6.63;65.96
66398;BME280;54877;51.504;3.894;2023-12-04T12:24:05;100243.34;;;6.61;66.11
66398;BME280;54877;51.504;3.894;2023-12-04T12:26:30;100240.91;;;6.56;66.30
66398;BME280;54877;51.504;3.894;2023-12-04T12:28:55;100236.97;;;6.66;66.25
66398;BME280;54877;51.504;3.894;2023-12-04T12:31:20;100243.81;;;6.70;66.42
66398;BME280;54877;51.504;3.894;2023-12-04T12:33:46;100235.19;;;6.67;66.35
66398;BME280;54877;51.504;3.894;2023-12-04T12:36:11;100217.38;;;6.73;66.10
66398;BME280;54877;51.504;3.894;2023-12-04T12:38:36;100219.28;;;6.70;66.02
66398;BME280;54877;51.504;3.894;2023-12-04T12:41:06;100218.69;;;6.63;66.05
66398;BME280;54877;51.504;3.894;2023-12-04T12:43:32;100217.78;;;6.64;65.94
66398;BME280;54877;51.504;3.894;2023-12-04T12:45:58;100200.81;;;6.51;66.10
66398;BME280;54877;51.504;3.894;2023-12-04T12:48:24;100207.13;;;6.67;66.31
66398;BME280;54877;51.504;3.894;2023-12-04T12:50:51;100208.97;;;6.65;66.14
66398;BME280;54877;51.504;3.894;2023-12-04T12:53:17;100197.59;;;6.65;65.99
66398;BME280;54877;51.504;3.894;2023-12-04T12:55:42;100197.47;;;6.68;66.07
66398;BME280;54877;51.504;3.894;2023-12-04T12:58:11;100200.25;;;6.63;66.03